Monroe City, Indiana
Current Conditions -  °F | °C
As of 10:15 PM on Tuesday 27 Jan 2015 (Local Time) from KDCY Reporting Station
Overcast Overcast  
Wind Chill: 24°   Ceiling: 2400
Heat Index: 29°   Visibility: 10mi
Dew Point: 23°   Wind: 5mph
Humidity: 77%   Direction: 20°NNE
Pressure: 30.25"   Gusts: NA
Location:  38.62°N, 87.35°W
Report Text: KDCY 280415Z AUTO 02004KT 10SM OVC024 M01/M05 A3025 RMK AO2 T10151051
Loading
Personal Weather Stations






























Interactive Weather Map New forecast layout! Learn more

10-Day Weather Forecast

Advertisements
Track Severe Weather on mobile